createdAt,value
2022-10-22T00:01:36.667Z,8.07
2022-10-22T00:04:03.154Z,8.06
2022-10-22T00:06:29.636Z,7.98
2022-10-22T00:08:56.175Z,8.08
2022-10-22T00:11:22.677Z,8.04
2022-10-22T00:13:49.309Z,8.14
2022-10-22T00:16:15.924Z,8.20
2022-10-22T00:18:42.429Z,8.10
2022-10-22T00:21:09.393Z,8.02
2022-10-22T00:23:35.820Z,7.94
2022-10-22T00:26:02.327Z,7.95
2022-10-22T00:28:28.791Z,8.06
2022-10-22T00:30:56.941Z,8.11
2022-10-22T00:33:23.620Z,8.07
2022-10-22T00:35:50.092Z,8.00
2022-10-22T00:38:16.580Z,8.06
2022-10-22T00:40:43.007Z,8.09
2022-10-22T00:43:13.924Z,8.08
2022-10-22T00:45:40.844Z,8.12
2022-10-22T00:48:08.555Z,8.11
2022-10-22T00:50:40.674Z,8.06
2022-10-22T00:53:13.744Z,8.05
2022-10-22T00:55:41.910Z,8.10
2022-10-22T00:58:08.515Z,8.07
2022-10-22T01:00:35.355Z,8.11
2022-10-22T01:03:01.879Z,8.12
2022-10-22T01:05:29.966Z,8.18
2022-10-22T01:07:56.484Z,8.13
2022-10-22T01:10:55.369Z,8.17
2022-10-22T01:13:48.689Z,8.23
2022-10-22T01:16:22.671Z,8.17
2022-10-22T01:19:05.811Z,8.23
2022-10-22T01:21:41.997Z,8.21
2022-10-22T01:24:20.463Z,8.27
2022-10-22T01:26:59.835Z,8.18
2022-10-22T01:29:48.733Z,8.15
2022-10-22T01:32:22.580Z,8.25
2022-10-22T01:34:52.600Z,8.25
2022-10-22T01:37:21.288Z,8.28
2022-10-22T01:39:48.279Z,8.35
2022-10-22T01:42:15.198Z,8.25
2022-10-22T01:44:42.086Z,8.29
2022-10-22T01:47:41.180Z,8.28
2022-10-22T01:50:24.354Z,8.24
2022-10-22T01:53:00.121Z,8.25
2022-10-22T01:55:32.190Z,8.13
2022-10-22T01:58:33.867Z,8.27
2022-10-22T02:01:08.796Z,8.24
2022-10-22T02:03:46.468Z,8.18
2022-10-22T02:06:18.931Z,8.16
2022-10-22T02:08:46.267Z,8.32
2022-10-22T02:11:14.258Z,8.39
2022-10-22T02:13:44.220Z,8.32
2022-10-22T02:16:13.914Z,8.25
2022-10-22T02:18:43.092Z,8.28
2022-10-22T02:21:09.892Z,8.13
2022-10-22T02:23:36.670Z,8.21
2022-10-22T02:26:20.529Z,8.27
2022-10-22T02:28:59.801Z,8.26
2022-10-22T02:31:29.161Z,8.19
2022-10-22T02:33:57.413Z,8.24
2022-10-22T02:36:24.420Z,8.21
2022-10-22T02:38:51.784Z,8.17
2022-10-22T02:41:18.583Z,8.18
2022-10-22T02:43:50.040Z,8.23
2022-10-22T02:46:16.663Z,8.22
2022-10-22T02:48:43.110Z,8.19
2022-10-22T02:51:09.577Z,8.27
2022-10-22T02:53:36.319Z,8.13
2022-10-22T02:56:02.829Z,8.26
2022-10-22T02:58:29.341Z,8.20
2022-10-22T03:00:56.044Z,8.09
2022-10-22T03:03:22.530Z,8.18
2022-10-22T03:05:51.108Z,8.12
2022-10-22T03:08:17.976Z,8.14
2022-10-22T03:10:44.519Z,8.14
2022-10-22T03:13:11.024Z,8.19
2022-10-22T03:15:37.603Z,8.13
2022-10-22T03:18:04.151Z,8.28
2022-10-22T03:20:30.947Z,8.30
2022-10-22T03:22:58.041Z,8.22
2022-10-22T03:25:25.814Z,8.18
2022-10-22T03:27:54.153Z,8.29
2022-10-22T03:30:21.056Z,8.27
2022-10-22T03:32:47.828Z,8.30
2022-10-22T03:35:14.442Z,8.33
2022-10-22T03:37:41.505Z,8.27
2022-10-22T03:40:09.481Z,8.30
2022-10-22T03:42:36.121Z,8.24
2022-10-22T03:45:02.629Z,8.39
2022-10-22T03:47:29.182Z,8.38
2022-10-22T03:49:55.695Z,8.33
2022-10-22T03:52:22.265Z,8.37
2022-10-22T03:54:48.809Z,8.32
2022-10-22T03:57:15.603Z,8.42
2022-10-22T03:59:44.430Z,8.34
2022-10-22T04:02:11.471Z,8.43
2022-10-22T04:04:38.113Z,8.40
2022-10-22T04:07:06.352Z,8.41
2022-10-22T04:09:33.421Z,8.46
2022-10-22T04:12:00.812Z,8.39
2022-10-22T04:14:27.274Z,8.48
2022-10-22T04:16:54.900Z,8.44
2022-10-22T04:19:21.447Z,8.53
2022-10-22T04:21:47.878Z,8.49
2022-10-22T04:24:14.475Z,8.44
2022-10-22T04:26:41.099Z,8.40
2022-10-22T04:29:11.775Z,8.45
2022-10-22T04:31:41.794Z,8.42
2022-10-22T04:34:08.401Z,8.45
2022-10-22T04:36:34.842Z,8.52
2022-10-22T04:39:01.979Z,8.42
2022-10-22T04:41:31.133Z,8.46
2022-10-22T04:43:58.586Z,8.38
2022-10-22T04:46:28.543Z,8.58
2022-10-22T04:48:55.032Z,8.64
2022-10-22T04:51:23.075Z,8.58
2022-10-22T04:53:49.972Z,8.53
2022-10-22T04:56:21.829Z,8.58
2022-10-22T04:58:55.896Z,8.59
2022-10-22T05:01:25.151Z,8.56
2022-10-22T05:03:53.016Z,8.56
2022-10-22T05:06:20.922Z,8.69
2022-10-22T05:08:48.336Z,8.63
2022-10-22T05:11:19.879Z,8.60
2022-10-22T05:13:46.749Z,8.48
2022-10-22T05:16:13.640Z,8.49
2022-10-22T05:18:42.080Z,8.48
2022-10-22T05:21:10.636Z,8.47
2022-10-22T05:23:37.278Z,8.66
2022-10-22T05:26:05.174Z,8.56
2022-10-22T05:28:32.311Z,8.60
2022-10-22T05:30:59.725Z,8.65
2022-10-22T05:33:28.020Z,8.54
2022-10-22T05:35:54.684Z,8.51
2022-10-22T05:38:21.524Z,8.48
2022-10-22T05:40:48.482Z,8.53
2022-10-22T05:43:14.909Z,8.56
2022-10-22T05:45:42.411Z,8.61
2022-10-22T05:48:09.800Z,8.61
2022-10-22T05:50:37.614Z,8.62
2022-10-22T05:53:07.428Z,8.74
2022-10-22T05:55:37.246Z,8.73
2022-10-22T05:58:04.609Z,8.86
2022-10-22T06:00:31.903Z,8.99
2022-10-22T06:02:58.772Z,9.00
2022-10-22T06:05:25.243Z,8.91
2022-10-22T06:07:51.905Z,8.94
2022-10-22T06:10:19.995Z,8.99
2022-10-22T06:12:47.253Z,9.01
2022-10-22T06:15:15.751Z,9.04
2022-10-22T06:17:44.508Z,9.19
2022-10-22T06:20:12.419Z,9.18
2022-10-22T06:22:39.291Z,9.29
2022-10-22T06:25:08.147Z,9.26
2022-10-22T06:27:34.944Z,9.35
2022-10-22T06:30:01.468Z,9.28
2022-10-22T06:32:27.979Z,9.19
2022-10-22T06:34:54.440Z,9.28
2022-10-22T06:37:20.995Z,9.30
2022-10-22T06:39:47.412Z,9.21
2022-10-22T06:42:13.862Z,9.20
2022-10-22T06:44:40.418Z,9.12
2022-10-22T06:47:07.018Z,9.16
2022-10-22T06:49:33.629Z,9.27
2022-10-22T06:52:00.097Z,9.36
2022-10-22T06:54:26.626Z,9.43
2022-10-22T06:56:53.184Z,9.48
2022-10-22T06:59:19.645Z,9.48
2022-10-22T07:01:46.460Z,9.42
2022-10-22T07:04:13.443Z,9.49
2022-10-22T07:06:39.884Z,9.33
2022-10-22T07:09:06.808Z,9.23
2022-10-22T07:11:40.650Z,9.13
2022-10-22T07:14:07.703Z,9.20
2022-10-22T07:16:34.210Z,9.25
2022-10-22T07:19:01.736Z,9.18
2022-10-22T07:21:28.633Z,9.15
2022-10-22T07:23:55.146Z,9.15
2022-10-22T07:26:21.877Z,9.20
2022-10-22T07:28:48.669Z,9.21
2022-10-22T07:31:16.062Z,9.18
2022-10-22T07:33:42.524Z,9.27
2022-10-22T07:36:11.507Z,9.23
2022-10-22T07:38:37.969Z,9.26
2022-10-22T07:41:04.679Z,9.22
2022-10-22T07:43:31.605Z,9.30
2022-10-22T07:45:59.621Z,9.26
2022-10-22T07:48:26.132Z,9.32
2022-10-22T07:50:52.658Z,9.37
2022-10-22T07:53:19.314Z,9.39
2022-10-22T07:55:49.129Z,9.43
2022-10-22T07:58:16.412Z,9.56
2022-10-22T08:00:42.963Z,9.60
2022-10-22T08:03:12.806Z,9.55
2022-10-22T08:05:39.417Z,9.61
2022-10-22T08:08:06.941Z,9.67
2022-10-22T08:10:33.750Z,9.75
2022-10-22T08:13:00.272Z,9.73
2022-10-22T08:15:27.276Z,9.82
2022-10-22T08:17:54.016Z,9.89
2022-10-22T08:20:20.674Z,9.83
2022-10-22T08:22:47.220Z,9.81
2022-10-22T08:25:15.439Z,9.70
2022-10-22T08:27:42.391Z,9.78
2022-10-22T08:30:09.779Z,9.77
2022-10-22T08:32:36.218Z,9.74
2022-10-22T08:35:02.645Z,9.68
2022-10-22T08:37:29.107Z,9.73
2022-10-22T08:39:55.614Z,9.73
2022-10-22T08:42:50.843Z,9.77
2022-10-22T08:45:26.727Z,9.89
2022-10-22T08:48:05.236Z,9.95
2022-10-22T08:50:44.130Z,10.07
2022-10-22T08:53:16.746Z,10.17
2022-10-22T08:55:44.156Z,10.21
2022-10-22T08:58:31.345Z,10.28
2022-10-22T09:01:03.855Z,10.24
2022-10-22T09:03:38.244Z,10.28
2022-10-22T09:06:15.287Z,10.20
2022-10-22T09:08:43.562Z,10.19
2022-10-22T09:11:12.655Z,10.33
2022-10-22T09:13:41.757Z,10.23
2022-10-22T09:16:19.262Z,10.13
2022-10-22T09:18:52.212Z,10.10
2022-10-22T09:21:52.880Z,10.09
2022-10-22T09:24:33.240Z,10.10
2022-10-22T09:27:01.533Z,10.11
2022-10-22T09:29:32.997Z,10.03
2022-10-22T09:31:59.583Z,9.98
2022-10-22T09:34:26.299Z,10.04
2022-10-22T09:37:07.024Z,10.03
2022-10-22T09:39:35.338Z,10.11
2022-10-22T09:42:01.970Z,10.20
2022-10-22T09:44:28.467Z,10.11
2022-10-22T09:46:54.946Z,10.05
2022-10-22T09:49:23.212Z,10.01
2022-10-22T09:51:56.631Z,10.03
2022-10-22T09:54:25.951Z,10.05
2022-10-22T09:57:17.586Z,10.13
2022-10-22T09:59:48.723Z,10.30
2022-10-22T10:02:37.390Z,10.32
2022-10-22T10:05:06.080Z,10.33
2022-10-22T10:07:33.573Z,10.35
2022-10-22T10:10:00.167Z,10.38
2022-10-22T10:12:52.742Z,10.34
2022-10-22T10:15:54.802Z,10.38
2022-10-22T10:18:44.055Z,10.41
2022-10-22T10:21:25.523Z,10.46
2022-10-22T10:24:21.305Z,10.45
2022-10-22T10:27:09.838Z,10.39
2022-10-22T10:29:47.235Z,10.35
2022-10-22T10:32:48.309Z,10.42
2022-10-22T10:35:28.609Z,10.52
2022-10-22T10:38:33.136Z,10.46
2022-10-22T10:41:09.010Z,10.42
2022-10-22T10:43:51.331Z,10.53
2022-10-22T10:46:32.194Z,10.61
2022-10-22T10:49:11.393Z,10.56
2022-10-22T10:51:50.309Z,10.52
2022-10-22T10:54:21.790Z,10.59
2022-10-22T10:56:53.397Z,10.54
2022-10-22T10:59:38.630Z,10.62
2022-10-22T11:02:30.334Z,10.55
2022-10-22T11:05:15.115Z,10.54
2022-10-22T11:08:19.375Z,10.63
2022-10-22T11:10:56.339Z,10.56
2022-10-22T11:13:43.929Z,10.60
2022-10-22T11:16:27.299Z,10.62
2022-10-22T11:19:03.473Z,10.61
2022-10-22T11:21:34.628Z,10.65
2022-10-22T11:24:14.973Z,10.66
2022-10-22T11:26:50.276Z,10.65
2022-10-22T11:29:30.739Z,10.70
2022-10-22T11:31:59.672Z,10.75
2022-10-22T11:34:41.982Z,10.69
2022-10-22T11:37:11.080Z,10.75
2022-10-22T11:39:57.324Z,10.75
2022-10-22T11:42:43.287Z,10.75
2022-10-22T11:45:15.581Z,10.75
2022-10-22T11:48:15.242Z,10.79
2022-10-22T11:50:42.624Z,10.82
2022-10-22T11:53:14.940Z,10.85
2022-10-22T11:55:45.902Z,10.93
2022-10-22T11:58:35.642Z,10.95
2022-10-22T12:01:02.114Z,10.96
2022-10-22T12:03:28.601Z,10.99
2022-10-22T12:06:11.964Z,10.99
2022-10-22T12:08:50.617Z,11.10
2022-10-22T12:11:21.508Z,11.10
2022-10-22T12:14:00.249Z,11.12
2022-10-22T12:16:37.788Z,11.13
2022-10-22T12:19:28.247Z,11.19
2022-10-22T12:21:58.864Z,11.24
2022-10-22T12:24:29.661Z,11.29
2022-10-22T12:26:56.248Z,11.25
2022-10-22T12:29:23.914Z,11.31
2022-10-22T12:31:50.564Z,11.32
2022-10-22T12:34:19.307Z,11.33
2022-10-22T12:36:47.835Z,11.45
2022-10-22T12:39:20.293Z,11.44
2022-10-22T12:41:47.071Z,11.59
2022-10-22T12:44:15.864Z,11.65
2022-10-22T12:46:43.806Z,11.67
2022-10-22T12:49:21.882Z,11.73
2022-10-22T12:51:49.286Z,11.84
2022-10-22T12:54:26.913Z,11.77
2022-10-22T12:56:54.431Z,11.76
2022-10-22T12:59:24.200Z,11.74
2022-10-22T13:01:51.612Z,11.69
2022-10-22T13:04:28.368Z,11.82
2022-10-22T13:07:19.796Z,11.77
2022-10-22T13:09:58.298Z,11.75
2022-10-22T13:12:26.925Z,11.66
2022-10-22T13:14:53.549Z,11.68
2022-10-22T13:17:37.323Z,11.64
2022-10-22T13:20:13.563Z,11.69
2022-10-22T13:22:42.008Z,11.68
2022-10-22T13:25:19.338Z,11.57
2022-10-22T13:27:51.402Z,11.55
2022-10-22T13:30:27.408Z,11.53
2022-10-22T13:32:58.253Z,11.52
2022-10-22T13:35:27.653Z,11.54
2022-10-22T13:37:54.912Z,11.51
2022-10-22T13:40:22.050Z,11.51
2022-10-22T13:42:48.824Z,11.53
2022-10-22T13:45:16.436Z,11.47
2022-10-22T13:47:46.812Z,11.44
2022-10-22T13:50:16.029Z,11.45
2022-10-22T13:52:46.339Z,11.40
2022-10-22T13:55:27.610Z,11.36
2022-10-22T13:57:56.598Z,11.35
2022-10-22T14:00:23.582Z,11.35
2022-10-22T14:02:52.874Z,11.25
2022-10-22T14:05:19.588Z,11.31
2022-10-22T14:07:46.425Z,11.30
2022-10-22T14:10:22.277Z,11.29
2022-10-22T14:12:52.407Z,11.25
2022-10-22T14:15:22.382Z,11.23
2022-10-22T14:17:52.804Z,11.18
2022-10-22T14:20:22.734Z,11.30
2022-10-22T14:22:50.544Z,11.26
2022-10-22T14:25:21.957Z,11.30
2022-10-22T14:27:48.752Z,11.22
2022-10-22T14:30:17.597Z,11.31
2022-10-22T14:32:44.377Z,11.31
2022-10-22T14:35:15.958Z,11.30
2022-10-22T14:37:42.874Z,11.35
2022-10-22T14:40:12.543Z,11.31
2022-10-22T14:42:43.026Z,11.34
2022-10-22T14:45:17.100Z,11.32
2022-10-22T14:47:43.770Z,11.32
2022-10-22T14:50:10.746Z,11.40
2022-10-22T14:52:37.415Z,11.31
2022-10-22T14:55:04.165Z,11.34
2022-10-22T14:57:31.343Z,11.29
2022-10-22T14:59:57.933Z,11.31
2022-10-22T15:02:24.602Z,11.28
2022-10-22T15:04:51.828Z,11.25
2022-10-22T15:07:19.084Z,11.21
2022-10-22T15:09:46.116Z,11.20
2022-10-22T15:12:12.827Z,11.22
2022-10-22T15:14:39.432Z,11.26
2022-10-22T15:17:06.046Z,11.20
2022-10-22T15:19:32.712Z,11.13
2022-10-22T15:21:59.227Z,11.14
2022-10-22T15:24:25.862Z,11.14
2022-10-22T15:26:53.990Z,11.20
2022-10-22T15:29:20.505Z,11.13
2022-10-22T15:31:49.561Z,11.11
2022-10-22T15:34:30.306Z,11.10
2022-10-22T15:36:59.354Z,11.09
2022-10-22T15:39:26.623Z,11.10
2022-10-22T15:41:53.784Z,11.08
2022-10-22T15:44:25.027Z,11.09
2022-10-22T15:46:51.926Z,11.01
2022-10-22T15:49:18.898Z,11.15
2022-10-22T15:51:45.392Z,11.10
2022-10-22T15:54:17.603Z,11.10
2022-10-22T15:56:44.679Z,11.05
2022-10-22T15:59:13.135Z,11.17
2022-10-22T16:01:40.155Z,11.13
2022-10-22T16:04:07.375Z,11.14
2022-10-22T16:06:46.115Z,11.17
2022-10-22T16:09:15.410Z,11.09
2022-10-22T16:11:42.155Z,11.02
2022-10-22T16:14:14.161Z,11.07
2022-10-22T16:16:44.917Z,11.07
2022-10-22T16:19:12.593Z,11.01
2022-10-22T16:21:39.123Z,11.01
2022-10-22T16:24:06.912Z,10.99
2022-10-22T16:26:33.643Z,10.95
2022-10-22T16:29:00.148Z,10.97
2022-10-22T16:31:26.727Z,10.95
2022-10-22T16:33:53.179Z,10.94
2022-10-22T16:36:21.037Z,10.91
2022-10-22T16:38:48.268Z,10.86
2022-10-22T16:41:22.961Z,10.92
2022-10-22T16:43:51.170Z,10.86
2022-10-22T16:46:21.774Z,10.92
2022-10-22T16:48:49.986Z,10.88
2022-10-22T16:51:18.666Z,10.88
2022-10-22T16:53:45.449Z,10.91
2022-10-22T16:56:13.853Z,10.90
2022-10-22T16:58:45.209Z,10.93
2022-10-22T17:01:13.384Z,10.90
2022-10-22T17:03:41.356Z,10.94
2022-10-22T17:06:08.382Z,10.87
2022-10-22T17:08:36.231Z,10.86
2022-10-22T17:11:22.808Z,10.88
2022-10-22T17:13:52.509Z,10.89
2022-10-22T17:16:21.193Z,10.85
2022-10-22T17:18:48.050Z,10.91
2022-10-22T17:21:15.361Z,10.90
2022-10-22T17:23:42.670Z,10.92
2022-10-22T17:26:14.324Z,10.89
2022-10-22T17:28:41.315Z,10.91
2022-10-22T17:31:23.448Z,10.95
2022-10-22T17:33:52.318Z,10.89
2022-10-22T17:36:19.316Z,10.82
2022-10-22T17:38:49.602Z,10.84
2022-10-22T17:41:18.953Z,10.91
2022-10-22T17:46:25.574Z,10.93
2022-10-22T17:48:53.302Z,10.91
2022-10-22T17:51:21.100Z,10.94
2022-10-22T17:53:47.964Z,10.87
2022-10-22T17:56:16.596Z,10.84
2022-10-22T17:58:43.515Z,10.85
2022-10-22T18:01:22.237Z,10.83
2022-10-22T18:03:48.970Z,10.85
2022-10-22T18:06:15.607Z,10.83
2022-10-22T18:08:42.194Z,10.88
2022-10-22T18:11:11.981Z,10.83
2022-10-22T18:13:38.670Z,10.85
2022-10-22T18:16:05.922Z,10.83
2022-10-22T18:18:33.971Z,10.84
2022-10-22T18:21:00.674Z,10.92
2022-10-22T18:23:27.718Z,10.98
2022-10-22T18:25:54.228Z,10.92
2022-10-22T18:28:20.975Z,10.93
2022-10-22T18:30:49.082Z,10.92
2022-10-22T18:33:17.291Z,10.88
2022-10-22T18:35:43.741Z,10.92
2022-10-22T18:38:13.241Z,10.96
2022-10-22T18:40:46.586Z,10.90
2022-10-22T18:43:13.130Z,10.97
2022-10-22T18:45:43.933Z,11.01
2022-10-22T18:48:10.987Z,11.01
2022-10-22T18:50:37.453Z,10.93
2022-10-22T18:53:03.986Z,10.93
2022-10-22T18:55:30.953Z,10.94
2022-10-22T18:57:57.578Z,10.96
2022-10-22T19:00:26.480Z,11.01
2022-10-22T19:02:56.046Z,10.98
2022-10-22T19:05:22.982Z,10.98
2022-10-22T19:07:50.379Z,10.95
2022-10-22T19:10:17.911Z,11.04
2022-10-22T19:12:44.590Z,11.03
2022-10-22T19:15:11.260Z,10.93
2022-10-22T19:17:37.819Z,10.97
2022-10-22T19:20:04.983Z,11.01
2022-10-22T19:22:32.978Z,11.04
2022-10-22T19:25:00.995Z,10.95
2022-10-22T19:27:27.598Z,10.97
2022-10-22T19:29:54.071Z,10.97
2022-10-22T19:32:21.038Z,10.90
2022-10-22T19:34:47.660Z,10.96
2022-10-22T19:37:14.153Z,10.94
2022-10-22T19:39:40.623Z,10.94
2022-10-22T19:42:07.177Z,10.99
2022-10-22T19:44:33.619Z,11.01
2022-10-22T19:47:00.083Z,10.97
2022-10-22T19:49:26.676Z,11.01
2022-10-22T19:51:53.152Z,10.91
2022-10-22T19:54:20.418Z,10.94
2022-10-22T19:56:47.737Z,10.95
2022-10-22T19:59:15.703Z,10.93
2022-10-22T20:01:42.144Z,11.00
2022-10-22T20:04:11.049Z,11.03
2022-10-22T20:06:37.828Z,10.97
2022-10-22T20:09:04.458Z,11.17
2022-10-22T20:11:31.146Z,11.44
2022-10-22T20:13:58.050Z,11.56
2022-10-22T20:16:28.587Z,11.28
2022-10-22T20:18:55.798Z,11.27
2022-10-22T20:21:22.309Z,11.38
2022-10-22T20:23:52.861Z,11.25
2022-10-22T20:26:19.832Z,11.23
2022-10-22T20:28:46.738Z,11.40
2022-10-22T20:31:16.419Z,11.37
2022-10-22T20:33:42.982Z,11.35
2022-10-22T20:36:14.244Z,11.31
2022-10-22T20:38:40.777Z,11.34
2022-10-22T20:41:16.765Z,11.37
2022-10-22T20:43:45.581Z,11.39
2022-10-22T20:46:17.741Z,11.54
2022-10-22T20:48:44.240Z,11.49
2022-10-22T20:51:11.048Z,11.46
2022-10-22T20:53:37.574Z,11.45
2022-10-22T20:56:04.189Z,11.41
2022-10-22T20:58:31.172Z,11.46
2022-10-22T21:00:58.247Z,11.44
2022-10-22T21:03:24.774Z,11.46
2022-10-22T21:05:51.346Z,11.37
2022-10-22T21:08:17.955Z,11.45
2022-10-22T21:10:49.197Z,11.44
2022-10-22T21:13:16.733Z,11.45
2022-10-22T21:15:43.726Z,11.45
2022-10-22T21:18:10.188Z,11.56
2022-10-22T21:20:38.871Z,11.58
2022-10-22T21:23:05.566Z,11.56
2022-10-22T21:25:32.474Z,11.68
2022-10-22T21:27:58.902Z,11.54
2022-10-22T21:30:25.552Z,11.63
2022-10-22T21:32:52.089Z,11.71
2022-10-22T21:35:18.734Z,11.65
2022-10-22T21:37:45.200Z,11.64
2022-10-22T21:40:12.060Z,11.64
2022-10-22T21:42:38.567Z,11.68
2022-10-22T21:45:10.479Z,11.70
2022-10-22T21:47:39.961Z,11.73
2022-10-22T21:50:07.151Z,11.69
2022-10-22T21:52:33.716Z,11.65
2022-10-22T21:55:00.143Z,11.64
2022-10-22T21:57:26.706Z,11.65
2022-10-22T21:59:53.150Z,11.69
2022-10-22T22:04:54.791Z,11.61
2022-10-22T22:07:21.977Z,11.66
2022-10-22T22:09:51.953Z,11.67
2022-10-22T22:12:18.697Z,11.64
2022-10-22T22:14:45.190Z,11.60
2022-10-22T22:17:11.845Z,11.64
2022-10-22T22:19:38.908Z,11.67
2022-10-22T22:22:05.394Z,11.64
2022-10-22T22:24:32.269Z,11.60
2022-10-22T22:26:59.041Z,11.59
2022-10-22T22:29:25.579Z,11.56
2022-10-22T22:31:52.194Z,11.55
2022-10-22T22:34:18.771Z,11.51
2022-10-22T22:36:47.109Z,11.49
2022-10-22T22:39:18.965Z,11.57
2022-10-22T22:41:46.250Z,11.70
2022-10-22T22:44:13.111Z,11.70
2022-10-22T22:46:39.962Z,11.70
2022-10-22T22:49:06.480Z,11.72
2022-10-22T22:51:33.192Z,11.65
2022-10-22T22:54:00.559Z,11.69
2022-10-22T22:56:34.283Z,11.63
2022-10-22T22:59:01.052Z,11.59
2022-10-22T23:01:33.364Z,11.56
2022-10-22T23:04:02.233Z,11.58
2022-10-22T23:06:31.132Z,11.58
2022-10-22T23:08:58.132Z,11.52
2022-10-22T23:11:25.674Z,11.59
2022-10-22T23:13:55.500Z,11.52
2022-10-22T23:16:23.241Z,11.58
2022-10-22T23:18:50.598Z,11.51
2022-10-22T23:21:20.195Z,11.51
2022-10-22T23:23:49.083Z,11.55
2022-10-22T23:26:18.833Z,11.48
2022-10-22T23:28:45.353Z,11.47
2022-10-22T23:31:15.969Z,11.45
2022-10-22T23:33:42.968Z,11.46
2022-10-22T23:36:10.509Z,11.43
2022-10-22T23:38:39.162Z,11.42
2022-10-22T23:41:05.956Z,11.48
2022-10-22T23:43:36.060Z,11.37
2022-10-22T23:46:04.282Z,11.38
2022-10-22T23:48:31.447Z,11.43
2022-10-22T23:50:57.886Z,11.39
2022-10-22T23:53:24.306Z,11.41
2022-10-22T23:55:50.764Z,11.37
2022-10-22T23:58:17.352Z,11.41
